Airport ID:KSMD
Update Time (UTC):19/05/2019 23:05
Wind Speed (Knots):10
Wind Direction (Magnetic):170
Temperature (°C):16.9
Dew Point (°C):14.7
Humidity (%):87.8
Altimeter (inHg):29.71
Density Altitude (Feet):
Visibility (Miles):10
Clouds (Hundreds of feet):FEW031 FEW046 FEW085
Present Weather:
METAR:METAR KSMD 192305Z AUTO 17011KT 9SM FEW031 FEW046 FEW085 17/15 A2971 RMK A01

The data displayed is for advisory purposes only and is not to be used for flight planning or operations.

This page is not automatically refreshed. Reload the page to see current data.